September 30, 2022

Time Code Weather Temp. Visibility Ceiling Wind METAR/SPECI
04:20
V
7 °C 6 mi - Var 000° 0 kt METAR CYTZ 300820Z AUTO 00000KT 6SM BR CLR 07/07 A3038 RMK SLP292
04:11
M
8 °C 4 mi - Var 000° 0 kt METAR CYTZ 300811Z AUTO 00000KT 4SM BR CLR 08/07 A3038 RMK SLP293
04:00
V
8 °C 9 mi - 220° 220° 2 kt METAR CYTZ 300800Z AUTO 22002KT 9SM CLR 08/07 A3038 RMK SLP292
03:00
V
8 °C 9 mi - 270° 270° 2 kt METAR CYTZ 300700Z AUTO 27002KT 9SM CLR 08/07 A3039 RMK SLP294
02:00
V
8 °C 9 mi - 140° 140° 3 kt METAR CYTZ 300600Z AUTO 14003KT 110V170 9SM CLR 08/07 A3039 RMK SLP295
01:00
V
10 °C 9 mi - Var 000° 0 kt METAR CYTZ 300500Z AUTO 00000KT 9SM CLR 10/09 A3039 RMK SLP296
00:00
V
9 °C 9 mi - 100° 100° 2 kt METAR CYTZ 300400Z AUTO 10002KT 9SM CLR 09/08 A3040 RMK SLP299

September 29, 2022

Time Code Weather Temp. Visibility Ceiling Wind METAR/SPECI
23:00
V
10 °C 9 mi - 070° 070° 4 kt METAR CYTZ 300300Z AUTO 07004KT 030V140 9SM CLR 10/08 A3041 RMK SLP301
22:00
V
10 °C 9 mi - 080° 080° 3 kt METAR CYTZ 300200Z AUTO 08003KT 050V140 9SM CLR 10/08 A3041 RMK SLP302
21:00
V
9 °C 9 mi - Var Var 2 kt METAR CYTZ 300100Z AUTO VRB02KT 9SM CLR 09/07 A3041 RMK SLP300
20:00
V
10 °C 9 mi - 070° 070° 3 kt METAR CYTZ 300000Z AUTO 07003KT 050V130 9SM CLR 10/08 A3041 RMK SLP302
19:00
V
12 °C 9 mi - Var 000° 0 kt METAR CYTZ 292300Z AUTO 00000KT 9SM CLR 12/06 A3042 RMK SLP303
18:00
V
13 °C 9 mi - 190° 190° 3 kt METAR CYTZ 292200Z AUTO 19003KT 9SM CLR 13/06 A3042 RMK SLP304
17:00
V
13 °C 9 mi - 180° 180° 5 kt METAR CYTZ 292100Z AUTO 18005KT 160V220 9SM CLR 13/06 A3043 RMK SLP309
16:00
V
13 °C 9 mi - 190° 190° 5 kt METAR CYTZ 292000Z AUTO 19005KT 170V270 9SM CLR 13/06 A3044 RMK SLP312
15:00
V
13 °C 9 mi - 190° 190° 7 kt METAR CYTZ 291900Z AUTO 19007KT 150V220 9SM CLR 13/06 A3046 RMK SLP317
14:00
V
12 °C 9 mi - 170° 170° 6 kt METAR CYTZ 291800Z AUTO 17006KT 9SM CLR 12/06 A3048 RMK SLP325
13:00
V
12 °C 9 mi - 180° 180° 6 kt METAR CYTZ 291700Z AUTO 18006KT 150V270 9SM CLR 12/05 A3050 RMK SLP332
12:00
V
12 °C 9 mi - 140° 140° 5 kt METAR CYTZ 291600Z AUTO 14005KT 9SM CLR 12/05 A3051 RMK SLP335
11:00
V
12 °C 9 mi - 160° 160° 4 kt METAR CYTZ 291500Z AUTO 16004KT 080V180 9SM SCT034 12/05 A3052 RMK SLP339
10:00
V
11 °C 9 mi - 090° 090° 7 kt METAR CYTZ 291400Z AUTO 09007KT 060V120 9SM CLR 11/05 A3052 RMK SLP339
09:00
V
11 °C 9 mi - 060° 060° 9 kt METAR CYTZ 291300Z AUTO 06009KT 9SM CLR 11/04 A3051 RMK SLP336
08:00
V
10 °C 9 mi - 060° 060° 12 kt METAR CYTZ 291200Z AUTO 06012KT 9SM SCT023 10/05 A3050 RMK SLP332
07:57
V
10 °C 9 mi - 050° 050° 12 kt METAR CYTZ 291157Z AUTO 05012KT 9SM SCT023 10/05 A3050 RMK SLP332
07:00
M
10 °C 9 mi 2,300 ft 050° 050° 11 kt METAR CYTZ 291100Z AUTO 05011KT 9SM BKN023 OVC044 10/04 A3048 RMK SLP325
06:51
M
10 °C 9 mi 2,300 ft 040° 040° 12 kt METAR CYTZ 291051Z AUTO 04012KT 9SM BKN023 OVC044 10/04 A3048 RMK SLP326
06:00
V
10 °C 9 mi 4,400 ft 050° 050° 9 kt METAR CYTZ 291000Z AUTO 05009KT 9SM FEW030 BKN044 10/04 A3047 RMK SLP321
05:00
V
11 °C 9 mi 4,200 ft 320° 320° 7 kt METAR CYTZ 290900Z AUTO 32007KT 270V360 9SM FEW030 OVC042 11/05 A3046 RMK SLP317
04:00
V
11 °C 9 mi 4,400 ft 320° 320° 7 kt METAR CYTZ 290800Z AUTO 32007KT 260V350 9SM SCT032 OVC044 11/06 A3045 RMK SLP315
03:00
V
11 °C 9 mi 4,200 ft 320° 320° 7 kt METAR CYTZ 290700Z AUTO 32007KT 280V350 9SM OVC042 11/05 A3045 RMK SLP314
02:00
V
11 °C 9 mi 4,300 ft 320° 320° 7 kt METAR CYTZ 290600Z AUTO 32007KT 280V350 9SM BKN043 11/05 A3044 RMK SLP310
01:00
V
12 °C 9 mi 4,300 ft 350° 350° 4 - 15 kt METAR CYTZ 290500Z AUTO 35004G15KT 300V360 9SM OVC043 12/05 A3044 RMK SLP310
00:00
V
12 °C 9 mi 4,100 ft 320° 320° 9 - 15 kt METAR CYTZ 290400Z AUTO 32009G15KT 9SM FEW030 OVC041 12/07 A3043 RMK SLP307

September 28, 2022

Time Code Weather Temp. Visibility Ceiling Wind METAR/SPECI
23:00
V
12 °C 9 mi 4,100 ft 320° 320° 12 kt METAR CYTZ 290300Z AUTO 32012KT 9SM OVC041 12/07 A3041 RMK SLP302
22:00
V
12 °C 9 mi 4,100 ft 320° 320° 13 kt METAR CYTZ 290200Z AUTO 32013KT 9SM OVC041 12/07 A3039 RMK SLP296
21:00
V
13 °C 9 mi 3,900 ft 310° 310° 16 kt METAR CYTZ 290100Z AUTO 31016KT 9SM OVC039 13/08 A3038 RMK SLP290
20:00
V
13 °C 9 mi 3,700 ft 360° 360° 7 - 15 kt METAR CYTZ 290000Z AUTO 36007G15KT 290V060 9SM OVC037 13/06 A3036 RMK SLP285
19:00
V
13 °C 9 mi 3,700 ft 330° 330° 11 - 18 kt METAR CYTZ 282300Z AUTO 33011G18KT 9SM OVC037 13/06 A3034 RMK SLP278
18:00
V
13 °C 9 mi 3,300 ft 330° 330° 10 - 18 kt METAR CYTZ 282200Z AUTO 33010G18KT 9SM OVC033 13/07 A3033 RMK SLP273
17:00
M
13 °C 9 mi 2,900 ft 350° 350° 10 - 18 kt METAR CYTZ 282100Z AUTO 35010G18KT 310V020 9SM OVC029 13/07 A3032 RMK SLP271
16:00
V
13 °C 9 mi 3,100 ft 330° 330° 15 - 23 kt METAR CYTZ 282000Z AUTO 33015G23KT 9SM OVC031 13/07 A3030 RMK SLP264
15:00
M
14 °C 9 mi 2,900 ft 330° 330° 10 - 21 kt METAR CYTZ 281900Z AUTO 33010G21KT 9SM OVC029 14/08 A3028 RMK SLP259
14:00
M
13 °C 9 mi 2,700 ft 320° 320° 15 kt METAR CYTZ 281800Z AUTO 32015KT 310V030 9SM OVC027 13/08 A3028 RMK SLP255
13:00
M
13 °C 9 mi 2,500 ft 330° 330° 11 - 19 kt METAR CYTZ 281700Z AUTO 33011G19KT 300V010 9SM OVC025 13/08 A3026 RMK SLP249
12:45
M
13 °C 9 mi 2,500 ft 350° 350° 6 kt METAR CYTZ 281645Z AUTO 35006KT 320V030 9SM OVC025 13/07 A3026 RMK SLP249
12:10
M
13 °C 9 mi 2,100 ft 350° 350° 7 kt METAR CYTZ 281610Z AUTO 35007KT 310V030 9SM BKN021 OVC026 13/08 A3025 RMK SLP245
12:00
M
13 °C 9 mi 2,100 ft 360° 360° 8 - 17 kt METAR CYTZ 281600Z AUTO 36008G17KT 310V040 9SM -RA BKN021 OVC026 13/09 A3024 RMK SLP243
11:00
M
13 °C 9 mi 2,300 ft 330° 330° 11 - 16 kt METAR CYTZ 281500Z AUTO 33011G16KT 310V020 9SM OVC023 13/09 A3023 RMK SLP238
10:00
M
12 °C 9 mi 1,800 ft 320° 320° 14 - 19 kt METAR CYTZ 281400Z AUTO 32014G19KT 280V010 9SM OVC018 12/09 A3020 RMK SLP228
09:00
M
12 °C 9 mi 1,600 ft 330° 330° 7 - 16 kt METAR CYTZ 281300Z AUTO 33007G16KT 9SM OVC016 12/09 A3016 RMK SLP217
08:00
M
12 °C 9 mi 1,600 ft 330° 330° 7 - 15 kt METAR CYTZ 281200Z AUTO 33007G15KT 280V020 9SM OVC016 12/09 A3014 RMK SLP209
07:35
M
12 °C 9 mi 1,600 ft 350° 350° 6 - 15 kt METAR CYTZ 281135Z AUTO 35006G15KT 290V010 9SM BKN016 OVC086 12/10 A3012 RMK SLP204
07:00
V
12 °C 9 mi 8,100 ft 330° 330° 8 - 17 kt METAR CYTZ 281100Z AUTO 33008G17KT 9SM FEW016 OVC081 12/09 A3011 RMK SLP199
06:00
V
12 °C 9 mi 8,100 ft 320° 320° 11 kt METAR CYTZ 281000Z AUTO 32011KT 9SM FEW018 OVC081 12/10 A3008 RMK SLP189
05:46
V
12 °C 9 mi 8,100 ft 320° 320° 11 - 17 kt METAR CYTZ 280946Z AUTO 32011G17KT 9SM SCT018 OVC081 12/10 A3007 RMK SLP187
Older data

We and third parties follow your internet behavior on our website with cookies. If you continue, we assume you agree with our cookie policy. Learn more